createdAt,value
2022-12-31T00:01:36.545Z,97.68
2022-12-31T00:04:03.305Z,97.61
2022-12-31T00:06:33.314Z,97.80
2022-12-31T00:09:01.692Z,98.10
2022-12-31T00:11:29.571Z,98.04
2022-12-31T00:13:56.574Z,98.36
2022-12-31T00:16:35.233Z,98.62
2022-12-31T00:19:01.893Z,98.13
2022-12-31T00:21:31.186Z,98.83
2022-12-31T00:23:58.286Z,98.99
2022-12-31T00:26:27.521Z,98.57
2022-12-31T00:28:55.565Z,98.31
2022-12-31T00:31:25.833Z,97.74
2022-12-31T00:33:52.942Z,97.46
2022-12-31T00:36:22.053Z,97.24
2022-12-31T00:38:50.017Z,96.93
2022-12-31T00:41:18.678Z,96.75
2022-12-31T00:43:45.278Z,97.09
2022-12-31T00:46:13.017Z,97.13
2022-12-31T00:48:39.736Z,97.21
2022-12-31T00:51:08.971Z,97.69
2022-12-31T00:53:35.741Z,97.84
2022-12-31T00:56:08.577Z,96.65
2022-12-31T00:58:35.123Z,97.23
2022-12-31T01:01:14.753Z,97.37
2022-12-31T01:03:41.167Z,97.10
2022-12-31T01:06:08.102Z,96.84
2022-12-31T01:08:35.143Z,97.16
2022-12-31T01:11:02.260Z,97.04
2022-12-31T01:13:28.698Z,97.03
2022-12-31T01:15:55.259Z,96.89
2022-12-31T01:18:21.658Z,96.97
2022-12-31T01:20:47.973Z,96.95
2022-12-31T01:23:14.330Z,97.54
2022-12-31T01:25:43.803Z,97.27
2022-12-31T01:28:10.353Z,97.31
2022-12-31T01:30:39.992Z,98.01
2022-12-31T01:33:06.441Z,97.47
2022-12-31T01:35:35.555Z,97.65
2022-12-31T01:38:01.863Z,97.60
2022-12-31T01:40:28.222Z,97.88
2022-12-31T01:42:58.491Z,97.63
2022-12-31T01:45:25.279Z,97.60
2022-12-31T01:47:57.614Z,97.45
2022-12-31T01:50:30.600Z,97.66
2022-12-31T01:53:01.426Z,97.48
2022-12-31T01:55:44.850Z,97.23
2022-12-31T01:58:17.701Z,97.59
2022-12-31T02:00:44.570Z,96.80
2022-12-31T02:03:12.432Z,96.83
2022-12-31T02:05:55.904Z,97.09
2022-12-31T02:08:22.286Z,97.04
2022-12-31T02:10:48.654Z,96.75
2022-12-31T02:13:15.397Z,96.03
2022-12-31T02:15:54.867Z,96.90
2022-12-31T02:18:34.982Z,97.57
2022-12-31T02:21:24.038Z,98.23
2022-12-31T02:24:02.584Z,98.37
2022-12-31T02:26:47.885Z,97.82
2022-12-31T02:30:02.310Z,98.25
2022-12-31T02:32:34.595Z,97.79
2022-12-31T02:35:07.571Z,98.42
2022-12-31T02:37:36.077Z,97.44
2022-12-31T02:40:07.332Z,97.65
2022-12-31T02:42:33.640Z,97.39
2022-12-31T02:45:00.221Z,97.77
2022-12-31T02:47:39.974Z,97.47
2022-12-31T02:50:35.197Z,97.78
2022-12-31T02:53:26.167Z,97.91
2022-12-31T02:56:02.633Z,97.82
2022-12-31T02:58:33.730Z,96.94
2022-12-31T03:01:00.751Z,97.04
2022-12-31T03:03:28.532Z,97.54
2022-12-31T03:05:56.250Z,96.83
2022-12-31T03:08:24.938Z,96.81
2022-12-31T03:10:51.904Z,96.93
2022-12-31T03:13:18.490Z,96.45
2022-12-31T03:15:45.015Z,97.80
2022-12-31T03:18:15.056Z,98.29
2022-12-31T03:20:49.501Z,97.91
2022-12-31T03:23:19.669Z,98.46
2022-12-31T03:25:46.827Z,98.15
2022-12-31T03:28:20.650Z,98.32
2022-12-31T03:30:50.090Z,98.35
2022-12-31T03:33:16.551Z,97.77
2022-12-31T03:35:44.860Z,97.79
2022-12-31T03:38:11.666Z,97.89
2022-12-31T03:40:44.666Z,97.80
2022-12-31T03:43:11.072Z,97.07
2022-12-31T03:45:37.532Z,96.96
2022-12-31T03:48:05.738Z,97.07
2022-12-31T03:50:32.537Z,97.44
2022-12-31T03:52:59.483Z,98.14
2022-12-31T03:55:26.054Z,98.32
2022-12-31T03:57:52.433Z,97.92
2022-12-31T04:00:21.327Z,98.48
2022-12-31T04:02:49.179Z,97.64
2022-12-31T04:05:16.971Z,98.41
2022-12-31T04:07:43.783Z,98.15
2022-12-31T04:10:12.770Z,98.33
2022-12-31T04:12:39.850Z,98.53
2022-12-31T04:15:07.255Z,98.49
2022-12-31T04:17:34.007Z,98.56
2022-12-31T04:20:00.480Z,98.23
2022-12-31T04:22:27.150Z,98.33
2022-12-31T04:24:53.502Z,98.49
2022-12-31T04:27:19.847Z,98.52
2022-12-31T04:29:46.267Z,98.44
2022-12-31T04:32:12.737Z,99.01
2022-12-31T04:34:39.127Z,98.84
2022-12-31T04:37:05.787Z,99.46
2022-12-31T04:39:32.354Z,99.44
2022-12-31T04:41:58.785Z,99.84
2022-12-31T04:44:25.293Z,99.91
2022-12-31T04:46:51.794Z,99.98
2022-12-31T04:49:18.129Z,99.82
2022-12-31T04:51:44.659Z,99.79
2022-12-31T04:54:11.210Z,100.00
2022-12-31T04:56:37.757Z,100.00
2022-12-31T04:59:05.112Z,100.00
2022-12-31T05:01:31.810Z,100.00
2022-12-31T05:03:58.441Z,100.00
2022-12-31T05:06:24.766Z,100.00
2022-12-31T05:08:51.374Z,100.00
2022-12-31T05:11:17.881Z,100.00
2022-12-31T05:13:44.561Z,100.00
2022-12-31T05:16:11.121Z,100.00
2022-12-31T05:18:37.841Z,100.00
2022-12-31T05:21:04.794Z,100.00
2022-12-31T05:23:31.332Z,100.00
2022-12-31T05:25:57.791Z,100.00
2022-12-31T05:28:24.122Z,100.00
2022-12-31T05:30:51.602Z,100.00
2022-12-31T05:33:18.677Z,100.00
2022-12-31T05:35:45.806Z,100.00
2022-12-31T05:38:12.177Z,100.00
2022-12-31T05:40:38.547Z,100.00
2022-12-31T05:43:05.062Z,100.00
2022-12-31T05:45:31.595Z,100.00
2022-12-31T05:47:58.516Z,99.93
2022-12-31T05:50:25.189Z,100.00
2022-12-31T05:52:51.630Z,100.00
2022-12-31T05:55:18.000Z,100.00
2022-12-31T05:57:44.387Z,100.00
2022-12-31T06:00:12.041Z,100.00
2022-12-31T06:02:38.466Z,100.00
2022-12-31T06:05:05.377Z,100.00
2022-12-31T06:07:31.966Z,100.00
2022-12-31T06:09:58.501Z,99.99
2022-12-31T06:12:25.111Z,100.00
2022-12-31T06:14:51.900Z,100.00
2022-12-31T06:17:18.463Z,100.00
2022-12-31T06:19:45.001Z,99.75
2022-12-31T06:22:11.340Z,100.00
2022-12-31T06:24:37.673Z,100.00
2022-12-31T06:27:04.019Z,100.00
2022-12-31T06:29:30.327Z,100.00
2022-12-31T06:31:57.937Z,100.00
2022-12-31T06:34:24.318Z,100.00
2022-12-31T06:36:50.993Z,100.00
2022-12-31T06:39:17.348Z,100.00
2022-12-31T06:41:43.757Z,100.00
2022-12-31T06:44:10.141Z,100.00
2022-12-31T06:46:36.575Z,100.00
2022-12-31T06:49:03.289Z,100.00
2022-12-31T06:51:29.732Z,100.00
2022-12-31T06:53:56.058Z,100.00
2022-12-31T06:56:33.002Z,100.00
2022-12-31T06:59:00.431Z,100.00
2022-12-31T07:01:58.740Z,100.00
2022-12-31T07:04:43.908Z,99.84
2022-12-31T07:07:28.425Z,100.00
2022-12-31T07:10:03.029Z,99.63
2022-12-31T07:12:59.415Z,99.32
2022-12-31T07:15:41.615Z,99.07
2022-12-31T07:18:20.304Z,99.36
2022-12-31T07:20:46.878Z,99.53
2022-12-31T07:23:13.492Z,98.68
2022-12-31T07:25:51.321Z,98.85
2022-12-31T07:28:48.121Z,99.02
2022-12-31T07:31:47.563Z,99.42
2022-12-31T07:34:16.905Z,98.92
2022-12-31T07:37:07.223Z,99.11
2022-12-31T07:39:48.751Z,99.00
2022-12-31T07:42:33.310Z,99.14
2022-12-31T07:45:14.708Z,99.01
2022-12-31T07:47:41.661Z,99.30
2022-12-31T07:50:15.225Z,98.86
2022-12-31T07:52:42.006Z,98.64
2022-12-31T07:55:08.621Z,99.13
2022-12-31T07:57:42.537Z,99.08
2022-12-31T08:00:14.360Z,98.55
2022-12-31T08:02:59.842Z,98.53
2022-12-31T08:05:48.298Z,98.93
2022-12-31T08:08:33.229Z,98.35
2022-12-31T08:11:10.291Z,98.36
2022-12-31T08:13:37.810Z,98.10
2022-12-31T08:16:10.885Z,97.93
2022-12-31T08:18:37.494Z,97.95
2022-12-31T08:21:35.021Z,97.59
2022-12-31T08:24:21.448Z,97.40
2022-12-31T08:26:56.914Z,97.00
2022-12-31T08:29:39.562Z,97.08
2022-12-31T08:32:21.742Z,97.26
2022-12-31T08:34:57.529Z,97.81
2022-12-31T08:37:40.234Z,97.65
2022-12-31T08:40:51.481Z,98.27
2022-12-31T08:43:40.270Z,97.69
2022-12-31T08:46:18.987Z,98.09
2022-12-31T08:48:45.770Z,97.91
2022-12-31T08:51:22.553Z,98.00
2022-12-31T08:53:49.823Z,97.75
2022-12-31T08:56:36.109Z,97.54
2022-12-31T08:59:10.299Z,97.33
2022-12-31T09:01:56.132Z,97.30
2022-12-31T09:04:44.161Z,97.87
2022-12-31T09:07:11.926Z,97.36
2022-12-31T09:09:59.370Z,97.72
2022-12-31T09:12:40.185Z,97.50
2022-12-31T09:15:18.118Z,97.36
2022-12-31T09:17:46.952Z,97.93
2022-12-31T09:20:17.960Z,97.27
2022-12-31T09:22:44.595Z,97.46
2022-12-31T09:25:15.824Z,97.27
2022-12-31T09:28:09.533Z,97.14
2022-12-31T09:30:47.922Z,97.06
2022-12-31T09:33:40.269Z,96.44
2022-12-31T09:36:10.855Z,96.17
2022-12-31T09:39:04.496Z,96.54
2022-12-31T09:41:38.041Z,96.04
2022-12-31T09:44:23.246Z,95.37
2022-12-31T09:47:07.887Z,96.00
2022-12-31T09:49:47.221Z,95.64
2022-12-31T09:52:30.081Z,96.00
2022-12-31T09:55:02.358Z,95.82
2022-12-31T09:57:37.803Z,95.13
2022-12-31T10:00:21.762Z,94.09
2022-12-31T10:03:25.968Z,93.91
2022-12-31T10:06:01.573Z,93.56
2022-12-31T10:08:40.129Z,92.89
2022-12-31T10:11:29.651Z,91.72
2022-12-31T10:14:17.521Z,92.15
2022-12-31T10:16:43.845Z,92.00
2022-12-31T10:19:15.598Z,91.72
2022-12-31T10:21:56.104Z,92.56
2022-12-31T10:24:50.459Z,92.33
2022-12-31T10:27:38.557Z,93.37
2022-12-31T10:30:21.800Z,93.50
2022-12-31T10:33:06.590Z,93.05
2022-12-31T10:35:43.410Z,93.85
2022-12-31T10:38:12.829Z,94.70
2022-12-31T10:40:54.683Z,93.67
2022-12-31T10:43:50.136Z,93.33
2022-12-31T10:46:55.882Z,93.39
2022-12-31T10:49:38.657Z,92.47
2022-12-31T10:52:49.243Z,92.43
2022-12-31T10:55:53.224Z,92.69
2022-12-31T10:58:50.156Z,91.15
2022-12-31T11:01:35.134Z,91.66
2022-12-31T11:04:32.413Z,92.49
2022-12-31T11:07:32.662Z,92.75
2022-12-31T11:10:12.966Z,93.10
2022-12-31T11:12:54.167Z,93.64
2022-12-31T11:15:22.768Z,93.96
2022-12-31T11:18:15.393Z,94.26
2022-12-31T11:21:00.800Z,94.92
2022-12-31T11:23:45.438Z,95.00
2022-12-31T11:26:38.322Z,96.05
2022-12-31T11:29:14.828Z,96.55
2022-12-31T11:31:59.759Z,96.17
2022-12-31T11:34:38.288Z,96.67
2022-12-31T11:37:29.579Z,94.68
2022-12-31T11:40:14.908Z,95.54
2022-12-31T11:42:59.330Z,95.38
2022-12-31T11:45:51.060Z,93.87
2022-12-31T11:48:32.532Z,93.07
2022-12-31T11:51:08.389Z,91.80
2022-12-31T11:53:57.879Z,90.87
2022-12-31T11:56:27.279Z,89.76
2022-12-31T11:58:56.210Z,89.95
2022-12-31T12:01:47.258Z,90.48
2022-12-31T12:04:13.651Z,89.47
2022-12-31T12:06:40.422Z,89.60
2022-12-31T12:09:13.212Z,89.97
2022-12-31T12:11:41.025Z,90.31
2022-12-31T12:14:34.221Z,89.77
2022-12-31T12:17:05.170Z,90.36
2022-12-31T12:19:34.100Z,90.33
2022-12-31T12:22:13.719Z,90.92
2022-12-31T12:24:40.606Z,90.84
2022-12-31T12:27:21.427Z,90.76
2022-12-31T12:29:48.022Z,90.77
2022-12-31T12:32:20.497Z,89.67
2022-12-31T12:34:49.846Z,90.66
2022-12-31T12:37:37.043Z,90.26
2022-12-31T12:40:07.784Z,90.20
2022-12-31T12:42:34.200Z,90.60
2022-12-31T12:45:22.801Z,90.80
2022-12-31T12:47:55.083Z,90.25
2022-12-31T12:50:24.582Z,90.27
2022-12-31T12:53:03.887Z,90.38
2022-12-31T12:55:56.047Z,90.26
2022-12-31T12:58:48.410Z,90.68
2022-12-31T13:01:34.837Z,89.99
2022-12-31T13:04:35.830Z,89.66
2022-12-31T13:07:23.974Z,89.83
2022-12-31T13:10:04.736Z,89.64
2022-12-31T13:13:22.633Z,89.58
2022-12-31T13:15:41.579Z,89.72
2022-12-31T13:18:19.375Z,90.22
2022-12-31T13:21:10.685Z,90.81
2022-12-31T13:23:47.065Z,91.07
2022-12-31T13:26:36.491Z,91.33
2022-12-31T13:29:04.059Z,91.91
2022-12-31T13:31:35.181Z,90.56
2022-12-31T13:34:13.003Z,91.07
2022-12-31T13:36:42.025Z,91.72
2022-12-31T13:39:16.748Z,91.46
2022-12-31T13:41:56.760Z,91.97
2022-12-31T13:44:35.120Z,92.15
2022-12-31T13:47:12.572Z,92.61
2022-12-31T13:49:48.365Z,92.44
2022-12-31T13:52:36.825Z,92.95
2022-12-31T13:55:13.340Z,93.17
2022-12-31T13:57:48.015Z,92.89
2022-12-31T14:00:20.563Z,91.91
2022-12-31T14:03:09.264Z,91.56
2022-12-31T14:05:44.604Z,91.71
2022-12-31T14:08:11.044Z,90.97
2022-12-31T14:10:54.414Z,90.87
2022-12-31T14:13:45.745Z,89.75
2022-12-31T14:16:19.325Z,89.45
2022-12-31T14:19:16.947Z,88.23
2022-12-31T14:21:53.233Z,88.57
2022-12-31T14:24:25.806Z,87.61
2022-12-31T14:27:00.601Z,87.87
2022-12-31T14:29:39.493Z,88.00
2022-12-31T14:32:08.590Z,87.58
2022-12-31T14:34:50.133Z,89.76
2022-12-31T14:37:35.314Z,88.37
2022-12-31T14:40:41.164Z,86.99
2022-12-31T14:43:13.601Z,87.31
2022-12-31T14:45:56.159Z,86.28
2022-12-31T14:48:28.828Z,86.17
2022-12-31T14:50:59.070Z,85.44
2022-12-31T14:53:28.215Z,85.41
2022-12-31T14:56:06.954Z,86.45
2022-12-31T14:58:39.771Z,85.93
2022-12-31T15:01:19.543Z,86.69
2022-12-31T15:03:47.108Z,85.82
2022-12-31T15:06:22.332Z,85.48
2022-12-31T15:09:19.949Z,85.77
2022-12-31T15:12:04.439Z,85.59
2022-12-31T15:15:01.859Z,84.90
2022-12-31T15:17:44.413Z,83.36
2022-12-31T15:20:19.118Z,82.58
2022-12-31T15:22:51.280Z,82.49
2022-12-31T15:25:47.473Z,81.97
2022-12-31T15:28:33.412Z,82.26
2022-12-31T15:31:20.340Z,81.30
2022-12-31T15:34:03.587Z,81.26
2022-12-31T15:36:35.785Z,81.34
2022-12-31T15:39:07.610Z,80.79
2022-12-31T15:42:18.237Z,79.80
2022-12-31T15:44:55.137Z,79.05
2022-12-31T15:47:31.236Z,79.02
2022-12-31T15:50:02.949Z,78.62
2022-12-31T15:52:55.287Z,77.59
2022-12-31T15:55:22.883Z,77.70
2022-12-31T15:57:50.274Z,77.80
2022-12-31T16:00:20.765Z,78.36
2022-12-31T16:02:48.197Z,77.66
2022-12-31T16:05:26.400Z,78.09
2022-12-31T16:07:58.146Z,77.28
2022-12-31T16:10:30.590Z,76.89
2022-12-31T16:12:58.549Z,76.33
2022-12-31T16:15:31.511Z,75.82
2022-12-31T16:18:05.940Z,76.44
2022-12-31T16:20:34.002Z,77.76
2022-12-31T16:23:02.087Z,75.42
2022-12-31T16:25:32.910Z,75.66
2022-12-31T16:28:02.715Z,75.69
2022-12-31T16:30:31.524Z,75.30
2022-12-31T16:33:02.945Z,75.48
2022-12-31T16:35:37.064Z,75.16
2022-12-31T16:38:18.175Z,73.77
2022-12-31T16:41:02.473Z,74.57
2022-12-31T16:43:36.687Z,75.57
2022-12-31T16:46:15.926Z,74.50
2022-12-31T16:48:47.002Z,74.39
2022-12-31T16:51:20.670Z,74.79
2022-12-31T16:53:48.485Z,73.89
2022-12-31T16:56:24.047Z,74.67
2022-12-31T16:59:03.156Z,74.46
2022-12-31T17:01:34.110Z,73.78
2022-12-31T17:04:04.626Z,73.63
2022-12-31T17:06:31.081Z,73.42
2022-12-31T17:08:58.848Z,74.46
2022-12-31T17:11:35.347Z,74.51
2022-12-31T17:14:08.125Z,73.62
2022-12-31T17:17:03.274Z,73.82
2022-12-31T17:19:45.826Z,73.66
2022-12-31T17:22:31.651Z,73.46
2022-12-31T17:25:25.745Z,73.35
2022-12-31T17:27:58.267Z,73.94
2022-12-31T17:30:27.407Z,73.09
2022-12-31T17:33:09.021Z,73.33
2022-12-31T17:35:38.388Z,72.99
2022-12-31T17:38:23.190Z,72.57
2022-12-31T17:40:52.140Z,72.65
2022-12-31T17:43:22.232Z,72.63
2022-12-31T17:45:51.322Z,72.08
2022-12-31T17:48:19.927Z,72.73
2022-12-31T17:50:51.745Z,72.40
2022-12-31T17:53:19.069Z,72.07
2022-12-31T17:55:49.167Z,71.13
2022-12-31T17:58:29.459Z,71.00
2022-12-31T18:00:57.382Z,70.60
2022-12-31T18:03:23.948Z,69.90
2022-12-31T18:05:50.315Z,69.66
2022-12-31T18:08:16.673Z,70.13
2022-12-31T18:10:44.366Z,70.55
2022-12-31T18:13:15.851Z,70.40
2022-12-31T18:15:42.181Z,70.32
2022-12-31T18:18:24.450Z,69.64
2022-12-31T18:21:02.805Z,68.84
2022-12-31T18:23:35.346Z,69.17
2022-12-31T18:26:01.692Z,68.76
2022-12-31T18:28:29.415Z,68.37
2022-12-31T18:30:55.891Z,68.64
2022-12-31T18:33:22.377Z,67.48
2022-12-31T18:36:08.150Z,67.43
2022-12-31T18:38:35.626Z,66.18
2022-12-31T18:41:02.245Z,66.53
2022-12-31T18:43:28.613Z,66.19
2022-12-31T18:45:55.003Z,65.31
2022-12-31T18:48:21.413Z,66.07
2022-12-31T18:50:49.533Z,65.28
2022-12-31T18:53:21.133Z,64.98
2022-12-31T18:55:52.021Z,64.22
2022-12-31T18:58:18.961Z,65.93
2022-12-31T19:00:49.649Z,65.75
2022-12-31T19:03:18.830Z,64.00
2022-12-31T19:05:45.800Z,64.71
2022-12-31T19:08:12.224Z,64.93
2022-12-31T19:10:38.603Z,64.93
2022-12-31T19:13:05.036Z,63.65
2022-12-31T19:15:33.298Z,63.76
2022-12-31T19:18:01.567Z,63.82
2022-12-31T19:20:29.395Z,63.55
2022-12-31T19:22:56.480Z,63.02
2022-12-31T19:25:34.480Z,63.79
2022-12-31T19:28:02.643Z,63.00
2022-12-31T19:30:32.113Z,63.61
2022-12-31T19:32:59.064Z,63.33
2022-12-31T19:35:26.742Z,64.21
2022-12-31T19:37:54.915Z,63.69
2022-12-31T19:40:27.183Z,62.73
2022-12-31T19:42:54.636Z,63.53
2022-12-31T19:45:27.136Z,63.97
2022-12-31T19:47:55.658Z,63.93
2022-12-31T19:50:25.055Z,63.42
2022-12-31T19:52:54.531Z,63.68
2022-12-31T19:55:23.454Z,63.43
2022-12-31T19:57:49.778Z,62.45
2022-12-31T20:00:18.122Z,63.21
2022-12-31T20:02:47.095Z,63.70
2022-12-31T20:05:16.039Z,63.89
2022-12-31T20:07:42.571Z,64.19
2022-12-31T20:10:09.144Z,64.10
2022-12-31T20:12:40.554Z,63.36
2022-12-31T20:15:10.840Z,62.94
2022-12-31T20:17:37.505Z,62.92
2022-12-31T20:20:05.573Z,63.22
2022-12-31T20:22:32.505Z,62.59
2022-12-31T20:24:59.103Z,62.62
2022-12-31T20:27:25.687Z,62.02
2022-12-31T20:29:52.153Z,63.18
2022-12-31T20:32:18.673Z,63.52
2022-12-31T20:34:45.176Z,62.33
2022-12-31T20:37:11.589Z,62.23
2022-12-31T20:39:38.289Z,61.22
2022-12-31T20:42:04.653Z,61.53
2022-12-31T20:44:31.020Z,62.38
2022-12-31T20:46:57.941Z,62.79
2022-12-31T20:49:52.256Z,61.57
2022-12-31T20:52:10.737Z,62.05
2022-12-31T20:54:37.123Z,62.49
2022-12-31T20:57:03.544Z,62.47
2022-12-31T20:59:29.906Z,62.86
2022-12-31T21:02:20.520Z,63.12
2022-12-31T21:04:42.921Z,61.67
2022-12-31T21:07:09.383Z,62.34
2022-12-31T21:09:35.716Z,62.45
2022-12-31T21:12:02.221Z,61.65
2022-12-31T21:14:28.640Z,61.22
2022-12-31T21:16:55.013Z,61.51
2022-12-31T21:19:21.360Z,61.63
2022-12-31T21:21:47.733Z,62.34
2022-12-31T21:24:20.182Z,61.67
2022-12-31T21:26:50.181Z,61.35
2022-12-31T21:29:16.579Z,61.44
2022-12-31T21:31:43.357Z,61.65
2022-12-31T21:34:09.853Z,63.02
2022-12-31T21:36:36.406Z,62.54
2022-12-31T21:39:03.195Z,62.65
2022-12-31T21:41:33.325Z,63.02
2022-12-31T21:44:00.883Z,62.63
2022-12-31T21:46:27.290Z,63.12
2022-12-31T21:48:55.622Z,62.60
2022-12-31T21:51:22.155Z,62.41
2022-12-31T21:53:48.519Z,61.72
2022-12-31T21:56:15.066Z,61.57
2022-12-31T21:58:44.085Z,62.59
2022-12-31T22:01:21.273Z,61.65
2022-12-31T22:03:47.840Z,61.23
2022-12-31T22:06:24.186Z,61.77
2022-12-31T22:08:53.588Z,61.34
2022-12-31T22:11:22.460Z,61.78
2022-12-31T22:13:49.281Z,61.57
2022-12-31T22:16:15.976Z,60.89
2022-12-31T22:18:43.096Z,61.62
2022-12-31T22:21:18.360Z,60.05
2022-12-31T22:23:48.266Z,60.56
2022-12-31T22:26:16.638Z,60.02
2022-12-31T22:28:44.798Z,60.23
2022-12-31T22:31:20.551Z,60.29
2022-12-31T22:33:47.644Z,60.63
2022-12-31T22:36:18.226Z,60.70
2022-12-31T22:38:45.387Z,60.67
2022-12-31T22:41:14.610Z,60.13
2022-12-31T22:43:49.080Z,59.86
2022-12-31T22:46:21.395Z,59.84
2022-12-31T22:48:48.361Z,59.79
2022-12-31T22:51:15.674Z,59.63
2022-12-31T22:53:42.643Z,59.87
2022-12-31T22:56:11.240Z,60.65
2022-12-31T22:58:38.154Z,60.65
2022-12-31T23:01:14.287Z,61.29
2022-12-31T23:03:44.088Z,60.09
2022-12-31T23:06:10.998Z,61.18
2022-12-31T23:08:38.708Z,62.04
2022-12-31T23:11:06.018Z,62.08
2022-12-31T23:13:42.138Z,61.06
2022-12-31T23:16:11.502Z,61.27
2022-12-31T23:18:37.913Z,60.86
2022-12-31T23:21:10.147Z,60.92
2022-12-31T23:23:36.710Z,61.18
2022-12-31T23:26:03.230Z,61.30
2022-12-31T23:28:29.619Z,60.32
2022-12-31T23:30:56.230Z,60.97
2022-12-31T23:33:25.441Z,60.86
2022-12-31T23:36:04.962Z,61.10
2022-12-31T23:38:31.347Z,61.27
2022-12-31T23:40:57.796Z,61.56
2022-12-31T23:43:24.409Z,60.92
2022-12-31T23:45:51.394Z,61.63
2022-12-31T23:48:17.929Z,61.32
2022-12-31T23:50:50.816Z,61.09
2022-12-31T23:53:19.455Z,61.07
2022-12-31T23:55:46.044Z,61.94
2022-12-31T23:58:12.406Z,62.19
